*** The Vicarage Weather Feed ***

Nearby METAR Reports


 

CYOO - Oshawa, Municipal Airport, Ontario, Canada
Distance from station: NW 3.2km
Updated: 14/12/2017 09:15
Partly cloudy
Partly cloudy
 Wind from NNW
Wind: NNW 13 km/h
Temperature: -17°C
Wind Chill: -25°C
Dew Point: -20°C
Humidity: 78%
Barometer: 1011.2 hPa
Clouds: Partly cloudy
Visibility: 14 km
Cloud details: Partly cloudy 396 m
2017/12/14 14:15 CYOO 141415Z AUTO 33007KT 9SM SCT013 M17/M20 A2986 RMK SLP124
CYKZ - Toronto, Buttonville, Municipal Airport, Ontario, Canada
Distance from station: W 39.75km
Updated: 14/12/2017 10:00
Ice crystals, Few clouds
Ice crystals, Few clouds
 Wind from N
Wind: N 11 km/h
Temperature: -14°C
Wind Chill: -21°C
Dew Point: -18°C
Humidity: 72%
Barometer: 1011.5 hPa
Summary: Ice Crystals
Clouds: Few Clouds
Visibility: 24 km
Cloud details: Few Clouds 305 m
Few Clouds 457 m
2017/12/14 15:00 CYKZ 141500Z 35006KT 15SM IC FEW010 FEW015 M14/M18 A2987 RMK CF1CU1 CF TR CU TR SLP130
 
CXTO - Toronto City, Buttonville, Ontario, Canada
Distance from station: WSW 49km
Updated: 14/12/2017 09:00

 
Temperature: -13°C
Dew Point: -18°C
Humidity: 66%
2017/12/14 14:00 CXTO 141400Z AUTO M13/M18 RMK AO1 2PAST HR SOG 05 1042 SLP119 P0001 T11331176 50002
CYTZ - Toronto City, Island Airport, Ontario, Canada
Distance from station: SW 51.7km
Updated: 14/12/2017 10:00
Clear
Clear
 Wind from WNW
Wind: WNW 9 km/h
Temperature: -12°C
Wind Chill: -18°C
Dew Point: -17°C
Humidity: 67%
Barometer: 1012.5 hPa
Clouds: Clear
Visibility: 14 km
2017/12/14 15:00 CYTZ 141500Z AUTO 30005KT 9SM CLR M12/M17 A2990 RMK PRESRR SLP133
 
CYPQ - Toronto, Peterborough Airport, Ontario, Canada
Distance from station: NE 54km
Updated: 14/12/2017 10:00
Clear
Clear
 Wind from NW
Wind: NW 15 km/h
Temperature: -19°C
Wind Chill: -28°C
Dew Point: -22°C
Humidity: 77%
Barometer: 1011.2 hPa
Clouds: Clear
Visibility: 14 km
2017/12/14 15:00 CYPQ 141500Z AUTO 31008KT 9SM CLR M19/M22 A2986 RMK SLP129
CWNC - Cobourg, (mars), Ontario, Canada
Distance from station: E 57km
Updated: 14/12/2017 10:00

 Wind from NNW
Wind: NNW 11 km/h
Temperature: -17°C
Wind Chill: -24°C
Dew Point: -23°C
Humidity: 60%
2017/12/14 15:00 CWNC 141500Z AUTO 34006KT M17/M23 RMK AO1 SOG 02 1039 SLP124 T11731234
 
CYYZ - Toronto, Lester Pearson Airport, Ontario, Canada
Distance from station: W 65.5km
Updated: 14/12/2017 10:00
Few Clouds
Few Clouds
 Wind from NW
Wind: NW 9 km/h
Temperature: -13°C
Wind Chill: -18°C
Dew Point: -18°C
Humidity: 66%
Barometer: 1011.9 hPa
Clouds: Few Clouds
Visibility: 24 km
Cloud details: Few Clouds 610 m
2017/12/14 15:00 CYYZ 141500Z 32005KT 15SM FEW020 M13/M18 A2988 RMK SC1 SC TR SLP134
CWGL - Lagoon City, Ontario, Canada
Distance from station: NNW 74km
Updated: 14/12/2017 10:00

 Wind from NNW
Wind: NNW 13 km/h
Temperature: -19°C
Wind Chill: -27°C
Dew Point: -21°C
Humidity: 84%
2017/12/14 15:00 CWGL 141500Z AUTO 34007KT M19/M21 RMK AO1 SLP123 T11891208 51030
 
CWWZ - Port Weller Airport, Ontario, Canada
Distance from station: SSW 77km
Updated: 14/12/2017 10:00

 Wind from NW
Wind: NW 20 km/h
Temperature: -8°C
Wind Chill: -15°C
Dew Point: -12°C
Humidity: 73%
2017/12/14 15:00 CWWZ 141500Z AUTO 31011KT M08/M12 RMK AO1 SOG 08 1041 PK WND 31017/1429 SLP137 T10761116
CYSN - St.Catharines Niagara Airport, Ontario, Canada
Distance from station: SSW 81km
Updated: 14/12/2017 10:00
Light snow, Showers, Mostly cloudy
Light snow, Showers, Mostly cloudy
 Wind from NW
Wind: NW 15 km/h
Temperature: -9°C
Wind Chill: -15°C
Dew Point: -14°C
Humidity: 67%
Barometer: 1012.9 hPa
Summary: Light snow, Showers
Clouds: Mostly cloudy
Visibility: 24 km
Cloud details: Mostly cloudy 762 m
2017/12/14 15:00 CYSN 141500Z 32008KT 15SM -SHSN BKN025 M09/M14 A2991 RMK SC6 PRESRR SLP137
This data is offered only as a general guide to local weather conditions. It should not be relied upon in lieu of officially disseminated weather information for determining possible risk to persons or property. This site, including all information contained therein, is made available as is without warranties of any kind, either express or implied. The Vicarage Weather Feed© includes links to other sites for user convenience only. The content of any linked third-party site is not controlled by The Vicarage Weather Feed©. Access to any third-party website through The Vicarage Weather Feed©, regardless of whether or not the third-party site is a linked site, is entirely at the users own risk. Externally sourced content or material is excluded from The Vicarage Weather Feed© copyright and is the copyright and property of the respective provider. Skywarn® and the Skywarn® logo are registered trademarks of the National Oceanic and Atmospheric Administration, used with permission.